sensor_id;sensor_type;location;lat;lon;timestamp;temperature;humidity
10010;DHT22;5044;48.652;9.250;2023-01-28T00:00:54;-1.10;99.90
10010;DHT22;5044;48.652;9.250;2023-01-28T00:03:25;-1.10;99.90
10010;DHT22;5044;48.652;9.250;2023-01-28T00:06:01;-1.10;99.90
10010;DHT22;5044;48.652;9.250;2023-01-28T00:08:28;-0.90;99.90
10010;DHT22;5044;48.652;9.250;2023-01-28T00:10:57;-1.10;99.90
10010;DHT22;5044;48.652;9.250;2023-01-28T00:13:25;-1.20;99.90
10010;DHT22;5044;48.652;9.250;2023-01-28T00:15:56;-1.20;99.90
10010;DHT22;5044;48.652;9.250;2023-01-28T00:18:30;-1.10;99.90
10010;DHT22;5044;48.652;9.250;2023-01-28T00:20:57;-1.10;99.90
10010;DHT22;5044;48.652;9.250;2023-01-28T00:23:25;-1.10;99.90
10010;DHT22;5044;48.652;9.250;2023-01-28T00:25:52;-1.10;99.90
10010;DHT22;5044;48.652;9.250;2023-01-28T00:28:20;-1.10;99.90
10010;DHT22;5044;48.652;9.250;2023-01-28T00:30:47;-0.50;99.90
10010;DHT22;5044;48.652;9.250;2023-01-28T00:33:14;-1.20;99.90
10010;DHT22;5044;48.652;9.250;2023-01-28T00:35:43;-0.90;99.90
10010;DHT22;5044;48.652;9.250;2023-01-28T00:38:11;-1.20;99.90
10010;DHT22;5044;48.652;9.250;2023-01-28T00:40:41;-1.10;99.90
10010;DHT22;5044;48.652;9.250;2023-01-28T00:43:09;-1.10;99.90
10010;DHT22;5044;48.652;9.250;2023-01-28T00:45:36;-0.80;99.90
10010;DHT22;5044;48.652;9.250;2023-01-28T00:48:04;-1.20;99.90
10010;DHT22;5044;48.652;9.250;2023-01-28T00:50:32;-1.10;99.90
10010;DHT22;5044;48.652;9.250;2023-01-28T00:53:02;-1.10;99.90
10010;DHT22;5044;48.652;9.250;2023-01-28T00:55:31;-1.20;99.90
10010;DHT22;5044;48.652;9.250;2023-01-28T00:57:58;-1.10;99.90
10010;DHT22;5044;48.652;9.250;2023-01-28T01:00:28;-1.20;99.90
10010;DHT22;5044;48.652;9.250;2023-01-28T01:02:55;-0.40;99.90
10010;DHT22;5044;48.652;9.250;2023-01-28T01:05:22;-1.10;99.90
10010;DHT22;5044;48.652;9.250;2023-01-28T01:07:49;-1.20;99.90
10010;DHT22;5044;48.652;9.250;2023-01-28T01:10:20;-1.20;99.90
10010;DHT22;5044;48.652;9.250;2023-01-28T01:12:48;-0.50;99.90
10010;DHT22;5044;48.652;9.250;2023-01-28T01:15:16;-1.10;99.90
10010;DHT22;5044;48.652;9.250;2023-01-28T01:17:45;-1.10;99.90
10010;DHT22;5044;48.652;9.250;2023-01-28T01:20:14;-1.10;99.90
10010;DHT22;5044;48.652;9.250;2023-01-28T01:22:44;-1.10;99.90
10010;DHT22;5044;48.652;9.250;2023-01-28T01:25:14;-1.10;99.90
10010;DHT22;5044;48.652;9.250;2023-01-28T01:27:43;-1.10;99.90
10010;DHT22;5044;48.652;9.250;2023-01-28T01:30:12;-1.10;99.90
10010;DHT22;5044;48.652;9.250;2023-01-28T01:32:39;-1.10;99.90
10010;DHT22;5044;48.652;9.250;2023-01-28T01:35:08;-1.10;99.90
10010;DHT22;5044;48.652;9.250;2023-01-28T01:37:37;-1.10;99.90
10010;DHT22;5044;48.652;9.250;2023-01-28T01:40:06;-1.10;99.90
10010;DHT22;5044;48.652;9.250;2023-01-28T01:42:33;-1.20;99.90
10010;DHT22;5044;48.652;9.250;2023-01-28T01:45:05;-1.10;99.90
10010;DHT22;5044;48.652;9.250;2023-01-28T01:47:38;-1.10;99.90
10010;DHT22;5044;48.652;9.250;2023-01-28T01:50:12;-1.10;99.90
10010;DHT22;5044;48.652;9.250;2023-01-28T01:52:42;-1.10;99.90
10010;DHT22;5044;48.652;9.250;2023-01-28T01:55:15;-1.10;99.90
10010;DHT22;5044;48.652;9.250;2023-01-28T01:57:51;-1.10;99.90
10010;DHT22;5044;48.652;9.250;2023-01-28T02:00:23;-1.10;99.90
10010;DHT22;5044;48.652;9.250;2023-01-28T02:02:52;-1.00;99.90
10010;DHT22;5044;48.652;9.250;2023-01-28T02:05:22;-1.10;99.90
10010;DHT22;5044;48.652;9.250;2023-01-28T02:07:53;-1.10;99.90
10010;DHT22;5044;48.652;9.250;2023-01-28T02:10:42;-1.10;99.90
10010;DHT22;5044;48.652;9.250;2023-01-28T02:13:11;-1.10;99.90
10010;DHT22;5044;48.652;9.250;2023-01-28T02:15:43;-1.10;99.90
10010;DHT22;5044;48.652;9.250;2023-01-28T02:18:11;-1.10;99.90
10010;DHT22;5044;48.652;9.250;2023-01-28T02:20:55;-1.10;99.90
10010;DHT22;5044;48.652;9.250;2023-01-28T02:23:43;-1.10;99.90
10010;DHT22;5044;48.652;9.250;2023-01-28T02:26:42;-1.10;99.90
10010;DHT22;5044;48.652;9.250;2023-01-28T02:29:26;-1.20;99.90
10010;DHT22;5044;48.652;9.250;2023-01-28T02:32:03;-1.10;99.90
10010;DHT22;5044;48.652;9.250;2023-01-28T02:34:37;-1.10;99.90
10010;DHT22;5044;48.652;9.250;2023-01-28T02:37:11;-1.10;99.90
10010;DHT22;5044;48.652;9.250;2023-01-28T02:39:48;-1.10;99.90
10010;DHT22;5044;48.652;9.250;2023-01-28T02:42:20;-1.10;99.90
10010;DHT22;5044;48.652;9.250;2023-01-28T02:44:50;-1.10;99.90
10010;DHT22;5044;48.652;9.250;2023-01-28T02:47:17;-1.10;99.90
10010;DHT22;5044;48.652;9.250;2023-01-28T02:50:04;-1.10;99.90
10010;DHT22;5044;48.652;9.250;2023-01-28T02:52:45;-1.10;99.90
10010;DHT22;5044;48.652;9.250;2023-01-28T02:55:38;-1.10;99.90
10010;DHT22;5044;48.652;9.250;2023-01-28T02:58:28;-1.10;99.90
10010;DHT22;5044;48.652;9.250;2023-01-28T03:01:14;-1.10;99.90
10010;DHT22;5044;48.652;9.250;2023-01-28T03:03:56;-1.10;99.90
10010;DHT22;5044;48.652;9.250;2023-01-28T03:06:27;-1.10;99.90
10010;DHT22;5044;48.652;9.250;2023-01-28T03:09:00;-1.10;99.90
10010;DHT22;5044;48.652;9.250;2023-01-28T03:11:48;-1.10;99.90
10010;DHT22;5044;48.652;9.250;2023-01-28T03:14:34;-1.10;99.90
10010;DHT22;5044;48.652;9.250;2023-01-28T03:17:24;-1.10;99.90
10010;DHT22;5044;48.652;9.250;2023-01-28T03:20:11;-0.90;99.90
10010;DHT22;5044;48.652;9.250;2023-01-28T03:22:59;-1.10;99.90
10010;DHT22;5044;48.652;9.250;2023-01-28T03:25:47;-1.10;99.90
10010;DHT22;5044;48.652;9.250;2023-01-28T03:28:33;-1.10;99.90
10010;DHT22;5044;48.652;9.250;2023-01-28T03:31:20;-0.70;99.90
10010;DHT22;5044;48.652;9.250;2023-01-28T03:34:08;-1.10;99.90
10010;DHT22;5044;48.652;9.250;2023-01-28T03:36:57;-1.10;99.90
10010;DHT22;5044;48.652;9.250;2023-01-28T03:39:27;-1.10;99.90
10010;DHT22;5044;48.652;9.250;2023-01-28T03:42:00;-1.10;99.90
10010;DHT22;5044;48.652;9.250;2023-01-28T03:44:28;-1.00;99.90
10010;DHT22;5044;48.652;9.250;2023-01-28T03:47:13;-1.10;99.90
10010;DHT22;5044;48.652;9.250;2023-01-28T03:49:46;-1.00;99.90
10010;DHT22;5044;48.652;9.250;2023-01-28T03:52:22;-0.50;99.90
10010;DHT22;5044;48.652;9.250;2023-01-28T03:54:49;-1.00;99.90
10010;DHT22;5044;48.652;9.250;2023-01-28T03:57:20;-1.10;99.90
10010;DHT22;5044;48.652;9.250;2023-01-28T03:59:47;-1.00;99.90
10010;DHT22;5044;48.652;9.250;2023-01-28T04:02:18;-1.00;99.90
10010;DHT22;5044;48.652;9.250;2023-01-28T04:04:50;-1.00;99.90
10010;DHT22;5044;48.652;9.250;2023-01-28T04:07:17;-1.00;99.90
10010;DHT22;5044;48.652;9.250;2023-01-28T04:09:45;-1.00;99.90
10010;DHT22;5044;48.652;9.250;2023-01-28T04:12:20;-0.20;99.90
10010;DHT22;5044;48.652;9.250;2023-01-28T04:14:48;-0.60;99.90
10010;DHT22;5044;48.652;9.250;2023-01-28T04:17:15;-1.00;99.90
10010;DHT22;5044;48.652;9.250;2023-01-28T04:19:42;-1.10;99.90
10010;DHT22;5044;48.652;9.250;2023-01-28T04:22:12;-0.40;99.90
10010;DHT22;5044;48.652;9.250;2023-01-28T04:24:39;-1.00;99.90
10010;DHT22;5044;48.652;9.250;2023-01-28T04:27:06;-0.50;99.90
10010;DHT22;5044;48.652;9.250;2023-01-28T04:29:33;-1.00;99.90
10010;DHT22;5044;48.652;9.250;2023-01-28T04:32:01;-1.00;99.90
10010;DHT22;5044;48.652;9.250;2023-01-28T04:34:28;-1.00;99.90
10010;DHT22;5044;48.652;9.250;2023-01-28T04:36:55;-1.00;99.90
10010;DHT22;5044;48.652;9.250;2023-01-28T04:39:31;-1.00;99.90
10010;DHT22;5044;48.652;9.250;2023-01-28T04:42:01;-1.00;99.90
10010;DHT22;5044;48.652;9.250;2023-01-28T04:44:29;-0.50;99.90
10010;DHT22;5044;48.652;9.250;2023-01-28T04:46:56;-1.00;99.90
10010;DHT22;5044;48.652;9.250;2023-01-28T04:49:23;-0.90;99.90
10010;DHT22;5044;48.652;9.250;2023-01-28T04:51:51;-1.00;99.90
10010;DHT22;5044;48.652;9.250;2023-01-28T04:54:26;-1.00;99.90
10010;DHT22;5044;48.652;9.250;2023-01-28T04:56:53;-0.40;99.90
10010;DHT22;5044;48.652;9.250;2023-01-28T04:59:22;-0.40;99.90
10010;DHT22;5044;48.652;9.250;2023-01-28T05:01:49;-0.90;99.90
10010;DHT22;5044;48.652;9.250;2023-01-28T05:04:16;-0.90;99.90
10010;DHT22;5044;48.652;9.250;2023-01-28T05:06:44;-0.60;99.90
10010;DHT22;5044;48.652;9.250;2023-01-28T05:09:13;-1.00;99.90
10010;DHT22;5044;48.652;9.250;2023-01-28T05:11:41;-0.90;99.90
10010;DHT22;5044;48.652;9.250;2023-01-28T05:14:09;-0.90;99.90
10010;DHT22;5044;48.652;9.250;2023-01-28T05:16:36;-0.90;99.90
10010;DHT22;5044;48.652;9.250;2023-01-28T05:19:05;-0.90;99.90
10010;DHT22;5044;48.652;9.250;2023-01-28T05:21:34;-0.90;99.90
10010;DHT22;5044;48.652;9.250;2023-01-28T05:24:04;-0.90;99.90
10010;DHT22;5044;48.652;9.250;2023-01-28T05:26:32;-0.90;99.90
10010;DHT22;5044;48.652;9.250;2023-01-28T05:29:02;-0.90;99.90
10010;DHT22;5044;48.652;9.250;2023-01-28T05:31:43;-1.00;99.90
10010;DHT22;5044;48.652;9.250;2023-01-28T05:34:12;-1.00;99.90
10010;DHT22;5044;48.652;9.250;2023-01-28T05:36:39;-0.90;99.90
10010;DHT22;5044;48.652;9.250;2023-01-28T05:39:06;-1.10;99.90
10010;DHT22;5044;48.652;9.250;2023-01-28T05:41:35;-0.60;99.90
10010;DHT22;5044;48.652;9.250;2023-01-28T05:44:13;-0.60;99.90
10010;DHT22;5044;48.652;9.250;2023-01-28T05:46:45;-0.20;99.90
10010;DHT22;5044;48.652;9.250;2023-01-28T05:49:13;-1.00;99.90
10010;DHT22;5044;48.652;9.250;2023-01-28T05:51:40;-0.90;99.90
10010;DHT22;5044;48.652;9.250;2023-01-28T05:54:10;-1.00;99.90
10010;DHT22;5044;48.652;9.250;2023-01-28T05:56:46;-0.90;99.90
10010;DHT22;5044;48.652;9.250;2023-01-28T05:59:15;-1.00;99.90
10010;DHT22;5044;48.652;9.250;2023-01-28T06:01:43;-0.70;99.90
10010;DHT22;5044;48.652;9.250;2023-01-28T06:04:12;-0.40;99.90
10010;DHT22;5044;48.652;9.250;2023-01-28T06:06:43;-0.30;99.90
10010;DHT22;5044;48.652;9.250;2023-01-28T06:09:15;-1.00;99.90
10010;DHT22;5044;48.652;9.250;2023-01-28T06:11:49;-1.00;99.90
10010;DHT22;5044;48.652;9.250;2023-01-28T06:14:19;-0.90;99.90
10010;DHT22;5044;48.652;9.250;2023-01-28T06:16:48;-0.30;99.90
10010;DHT22;5044;48.652;9.250;2023-01-28T06:19:16;-0.60;99.90
10010;DHT22;5044;48.652;9.250;2023-01-28T06:21:44;-1.00;99.90
10010;DHT22;5044;48.652;9.250;2023-01-28T06:24:13;-0.90;99.90
10010;DHT22;5044;48.652;9.250;2023-01-28T06:26:40;-1.00;99.90
10010;DHT22;5044;48.652;9.250;2023-01-28T06:29:07;-0.90;99.90
10010;DHT22;5044;48.652;9.250;2023-01-28T06:31:39;-0.90;99.90
10010;DHT22;5044;48.652;9.250;2023-01-28T06:34:08;-0.90;99.90
10010;DHT22;5044;48.652;9.250;2023-01-28T06:36:35;-0.90;99.90
10010;DHT22;5044;48.652;9.250;2023-01-28T06:39:02;-0.40;99.90
10010;DHT22;5044;48.652;9.250;2023-01-28T06:41:31;-1.00;99.90
10010;DHT22;5044;48.652;9.250;2023-01-28T06:43:58;-0.90;99.90
10010;DHT22;5044;48.652;9.250;2023-01-28T06:46:27;-1.00;99.90
10010;DHT22;5044;48.652;9.250;2023-01-28T06:48:56;-0.40;99.90
10010;DHT22;5044;48.652;9.250;2023-01-28T06:51:27;-1.00;99.90
10010;DHT22;5044;48.652;9.250;2023-01-28T06:53:54;-0.60;99.90
10010;DHT22;5044;48.652;9.250;2023-01-28T06:56:23;-0.40;99.90
10010;DHT22;5044;48.652;9.250;2023-01-28T06:58:51;-0.30;99.90
10010;DHT22;5044;48.652;9.250;2023-01-28T07:01:19;-0.90;99.90
10010;DHT22;5044;48.652;9.250;2023-01-28T07:03:47;-0.90;99.90
10010;DHT22;5044;48.652;9.250;2023-01-28T07:06:17;-0.90;99.90
10010;DHT22;5044;48.652;9.250;2023-01-28T07:08:45;-0.90;99.90
10010;DHT22;5044;48.652;9.250;2023-01-28T07:11:14;-0.90;99.90
10010;DHT22;5044;48.652;9.250;2023-01-28T07:13:42;-0.20;99.90
10010;DHT22;5044;48.652;9.250;2023-01-28T07:16:10;-0.90;99.90
10010;DHT22;5044;48.652;9.250;2023-01-28T07:18:39;-0.90;99.90
10010;DHT22;5044;48.652;9.250;2023-01-28T07:21:10;-0.50;99.90
10010;DHT22;5044;48.652;9.250;2023-01-28T07:23:41;-0.40;99.90
10010;DHT22;5044;48.652;9.250;2023-01-28T07:26:11;-0.90;99.90
10010;DHT22;5044;48.652;9.250;2023-01-28T07:28:40;-0.90;99.90
10010;DHT22;5044;48.652;9.250;2023-01-28T07:31:16;-0.90;99.90
10010;DHT22;5044;48.652;9.250;2023-01-28T07:33:45;-0.30;99.90
10010;DHT22;5044;48.652;9.250;2023-01-28T07:36:12;-0.30;99.90
10010;DHT22;5044;48.652;9.250;2023-01-28T07:38:46;-0.60;99.90
10010;DHT22;5044;48.652;9.250;2023-01-28T07:41:25;-0.80;99.90
10010;DHT22;5044;48.652;9.250;2023-01-28T07:43:52;-0.80;99.90
10010;DHT22;5044;48.652;9.250;2023-01-28T07:46:22;-0.80;99.90
10010;DHT22;5044;48.652;9.250;2023-01-28T07:48:50;-0.70;99.90
10010;DHT22;5044;48.652;9.250;2023-01-28T07:51:17;-0.70;99.90
10010;DHT22;5044;48.652;9.250;2023-01-28T07:53:56;0.10;99.90
10010;DHT22;5044;48.652;9.250;2023-01-28T07:56:25;-0.70;99.90
10010;DHT22;5044;48.652;9.250;2023-01-28T07:58:55;-0.70;99.90
10010;DHT22;5044;48.652;9.250;2023-01-28T08:01:26;-0.10;99.90
10010;DHT22;5044;48.652;9.250;2023-01-28T08:03:56;-0.60;99.90
10010;DHT22;5044;48.652;9.250;2023-01-28T08:06:29;-0.10;99.90
10010;DHT22;5044;48.652;9.250;2023-01-28T08:09:19;-0.20;99.90
10010;DHT22;5044;48.652;9.250;2023-01-28T08:11:48;0.00;99.90
10010;DHT22;5044;48.652;9.250;2023-01-28T08:14:15;0.10;99.90
10010;DHT22;5044;48.652;9.250;2023-01-28T08:16:53;0.10;99.90
10010;DHT22;5044;48.652;9.250;2023-01-28T08:19:28;-0.20;99.90
10010;DHT22;5044;48.652;9.250;2023-01-28T08:21:55;-0.50;99.90
10010;DHT22;5044;48.652;9.250;2023-01-28T08:24:27;-0.70;99.90
10010;DHT22;5044;48.652;9.250;2023-01-28T08:27:23;-0.40;99.90
10010;DHT22;5044;48.652;9.250;2023-01-28T08:29:56;-0.30;99.90
10010;DHT22;5044;48.652;9.250;2023-01-28T08:32:27;0.10;99.90
10010;DHT22;5044;48.652;9.250;2023-01-28T08:34:55;-0.40;99.90
10010;DHT22;5044;48.652;9.250;2023-01-28T08:37:32;0.00;99.90
10010;DHT22;5044;48.652;9.250;2023-01-28T08:40:06;0.10;99.90
10010;DHT22;5044;48.652;9.250;2023-01-28T08:42:34;-0.30;99.90
10010;DHT22;5044;48.652;9.250;2023-01-28T08:45:02;-0.20;99.90
10010;DHT22;5044;48.652;9.250;2023-01-28T08:47:30;-0.30;99.90
10010;DHT22;5044;48.652;9.250;2023-01-28T08:49:57;0.40;99.90
10010;DHT22;5044;48.652;9.250;2023-01-28T08:52:24;0.00;99.90
10010;DHT22;5044;48.652;9.250;2023-01-28T08:54:52;0.30;99.90
10010;DHT22;5044;48.652;9.250;2023-01-28T08:57:35;0.20;99.90
10010;DHT22;5044;48.652;9.250;2023-01-28T09:00:05;-0.20;99.90
10010;DHT22;5044;48.652;9.250;2023-01-28T09:02:39;-0.20;99.90
10010;DHT22;5044;48.652;9.250;2023-01-28T09:05:28;-0.20;99.90
10010;DHT22;5044;48.652;9.250;2023-01-28T09:07:59;-0.10;99.90
10010;DHT22;5044;48.652;9.250;2023-01-28T09:10:27;-0.10;99.90
10010;DHT22;5044;48.652;9.250;2023-01-28T09:12:56;0.10;99.90
10010;DHT22;5044;48.652;9.250;2023-01-28T09:15:37;0.00;99.90
10010;DHT22;5044;48.652;9.250;2023-01-28T09:26:17;-0.40;99.90
10010;DHT22;5044;48.652;9.250;2023-01-28T09:36:12;0.40;99.90
10010;DHT22;5044;48.652;9.250;2023-01-28T10:14:12;1.20;99.90
10010;DHT22;5044;48.652;9.250;2023-01-28T10:16:46;1.50;99.90
10010;DHT22;5044;48.652;9.250;2023-01-28T10:19:18;1.50;99.90
10010;DHT22;5044;48.652;9.250;2023-01-28T10:21:51;1.60;99.90
10010;DHT22;5044;48.652;9.250;2023-01-28T10:24:27;1.60;99.90
10010;DHT22;5044;48.652;9.250;2023-01-28T10:26:56;1.90;99.90
10010;DHT22;5044;48.652;9.250;2023-01-28T10:29:39;1.70;99.90
10010;DHT22;5044;48.652;9.250;2023-01-28T10:32:16;2.10;99.90
10010;DHT22;5044;48.652;9.250;2023-01-28T10:34:47;1.40;99.90
10010;DHT22;5044;48.652;9.250;2023-01-28T10:37:15;1.90;99.90
10010;DHT22;5044;48.652;9.250;2023-01-28T10:39:57;1.40;99.90
10010;DHT22;5044;48.652;9.250;2023-01-28T10:42:30;1.50;99.90
10010;DHT22;5044;48.652;9.250;2023-01-28T10:45:02;1.50;99.90
10010;DHT22;5044;48.652;9.250;2023-01-28T10:47:34;1.50;99.90
10010;DHT22;5044;48.652;9.250;2023-01-28T10:50:04;2.30;99.90
10010;DHT22;5044;48.652;9.250;2023-01-28T10:52:31;1.60;99.90
10010;DHT22;5044;48.652;9.250;2023-01-28T10:54:59;2.10;99.90
10010;DHT22;5044;48.652;9.250;2023-01-28T10:57:27;1.90;99.90
10010;DHT22;5044;48.652;9.250;2023-01-28T11:00:07;1.60;99.90
10010;DHT22;5044;48.652;9.250;2023-01-28T11:02:35;1.60;99.90
10010;DHT22;5044;48.652;9.250;2023-01-28T11:05:13;1.90;99.90
10010;DHT22;5044;48.652;9.250;2023-01-28T11:07:42;1.60;99.90
10010;DHT22;5044;48.652;9.250;2023-01-28T11:10:25;2.20;99.90
10010;DHT22;5044;48.652;9.250;2023-01-28T11:12:57;1.60;99.90
10010;DHT22;5044;48.652;9.250;2023-01-28T11:15:27;2.00;99.90
10010;DHT22;5044;48.652;9.250;2023-01-28T11:17:57;1.50;99.90
10010;DHT22;5044;48.652;9.250;2023-01-28T11:20:26;1.50;99.90
10010;DHT22;5044;48.652;9.250;2023-01-28T11:22:56;1.50;99.90
10010;DHT22;5044;48.652;9.250;2023-01-28T11:25:28;1.90;99.90
10010;DHT22;5044;48.652;9.250;2023-01-28T11:28:02;1.50;99.90
10010;DHT22;5044;48.652;9.250;2023-01-28T11:30:35;1.60;99.90
10010;DHT22;5044;48.652;9.250;2023-01-28T11:33:14;2.10;99.90
10010;DHT22;5044;48.652;9.250;2023-01-28T11:35:52;2.10;99.90
10010;DHT22;5044;48.652;9.250;2023-01-28T11:38:23;1.90;99.90
10010;DHT22;5044;48.652;9.250;2023-01-28T11:41:05;1.90;99.90
10010;DHT22;5044;48.652;9.250;2023-01-28T11:43:32;1.90;99.90
10010;DHT22;5044;48.652;9.250;2023-01-28T11:46:14;1.40;99.90
10010;DHT22;5044;48.652;9.250;2023-01-28T11:48:48;1.90;99.90
10010;DHT22;5044;48.652;9.250;2023-01-28T11:51:29;1.60;99.90
10010;DHT22;5044;48.652;9.250;2023-01-28T11:54:06;2.00;99.90
10010;DHT22;5044;48.652;9.250;2023-01-28T11:56:46;2.20;99.90
10010;DHT22;5044;48.652;9.250;2023-01-28T12:02:29;1.30;99.90
10010;DHT22;5044;48.652;9.250;2023-01-28T12:05:25;1.50;99.90
10010;DHT22;5044;48.652;9.250;2023-01-28T12:08:05;1.30;99.90
10010;DHT22;5044;48.652;9.250;2023-01-28T12:10:39;1.40;99.90
10010;DHT22;5044;48.652;9.250;2023-01-28T12:13:24;1.30;99.90
10010;DHT22;5044;48.652;9.250;2023-01-28T12:16:17;1.30;99.90
10010;DHT22;5044;48.652;9.250;2023-01-28T12:19:02;1.60;99.90
10010;DHT22;5044;48.652;9.250;2023-01-28T12:21:44;1.50;99.90
10010;DHT22;5044;48.652;9.250;2023-01-28T12:24:28;1.30;99.90
10010;DHT22;5044;48.652;9.250;2023-01-28T12:27:07;1.00;99.90
10010;DHT22;5044;48.652;9.250;2023-01-28T12:29:40;1.10;99.90
10010;DHT22;5044;48.652;9.250;2023-01-28T12:32:31;1.30;99.90
10010;DHT22;5044;48.652;9.250;2023-01-28T12:35:30;1.30;99.90
10010;DHT22;5044;48.652;9.250;2023-01-28T12:38:07;1.20;99.90
10010;DHT22;5044;48.652;9.250;2023-01-28T12:41:08;1.40;99.90
10010;DHT22;5044;48.652;9.250;2023-01-28T12:43:44;1.20;99.90
10010;DHT22;5044;48.652;9.250;2023-01-28T12:46:22;1.10;99.90
10010;DHT22;5044;48.652;9.250;2023-01-28T12:49:03;1.30;99.90
10010;DHT22;5044;48.652;9.250;2023-01-28T12:51:45;0.60;99.90
10010;DHT22;5044;48.652;9.250;2023-01-28T12:54:18;1.10;99.90
10010;DHT22;5044;48.652;9.250;2023-01-28T13:00:21;1.10;99.90
10010;DHT22;5044;48.652;9.250;2023-01-28T13:02:54;1.10;99.90
10010;DHT22;5044;48.652;9.250;2023-01-28T13:05:30;1.10;99.90
10010;DHT22;5044;48.652;9.250;2023-01-28T13:08:21;1.80;99.90
10010;DHT22;5044;48.652;9.250;2023-01-28T13:11:01;1.00;99.90
10010;DHT22;5044;48.652;9.250;2023-01-28T13:13:31;0.90;99.90
10010;DHT22;5044;48.652;9.250;2023-01-28T13:16:00;1.90;99.90
10010;DHT22;5044;48.652;9.250;2023-01-28T13:18:33;1.10;99.90
10010;DHT22;5044;48.652;9.250;2023-01-28T13:21:03;1.60;99.90
10010;DHT22;5044;48.652;9.250;2023-01-28T13:23:39;1.00;99.90
10010;DHT22;5044;48.652;9.250;2023-01-28T13:26:26;1.20;99.90
10010;DHT22;5044;48.652;9.250;2023-01-28T13:29:18;1.60;99.90
10010;DHT22;5044;48.652;9.250;2023-01-28T13:31:47;1.40;99.90
10010;DHT22;5044;48.652;9.250;2023-01-28T13:34:41;0.90;99.90
10010;DHT22;5044;48.652;9.250;2023-01-28T13:37:21;1.00;99.90
10010;DHT22;5044;48.652;9.250;2023-01-28T13:40:00;0.90;99.90
10010;DHT22;5044;48.652;9.250;2023-01-28T13:42:42;1.00;99.90
10010;DHT22;5044;48.652;9.250;2023-01-28T13:45:20;1.00;99.90
10010;DHT22;5044;48.652;9.250;2023-01-28T13:47:50;1.00;99.90
10010;DHT22;5044;48.652;9.250;2023-01-28T13:50:20;0.90;99.90
10010;DHT22;5044;48.652;9.250;2023-01-28T13:53:04;1.40;99.90
10010;DHT22;5044;48.652;9.250;2023-01-28T13:55:44;1.00;99.90
10010;DHT22;5044;48.652;9.250;2023-01-28T13:58:52;1.00;99.90
10010;DHT22;5044;48.652;9.250;2023-01-28T14:01:34;1.10;99.90
10010;DHT22;5044;48.652;9.250;2023-01-28T14:04:49;1.50;99.90
10010;DHT22;5044;48.652;9.250;2023-01-28T14:07:25;1.10;99.90
10010;DHT22;5044;48.652;9.250;2023-01-28T14:13:13;1.10;99.90
10010;DHT22;5044;48.652;9.250;2023-01-28T14:16:07;1.20;99.90
10010;DHT22;5044;48.652;9.250;2023-01-28T14:18:42;1.20;99.90
10010;DHT22;5044;48.652;9.250;2023-01-28T14:21:11;1.20;99.90
10010;DHT22;5044;48.652;9.250;2023-01-28T14:23:44;1.80;99.90
10010;DHT22;5044;48.652;9.250;2023-01-28T14:26:23;1.50;99.90
10010;DHT22;5044;48.652;9.250;2023-01-28T14:29:06;1.30;99.90
10010;DHT22;5044;48.652;9.250;2023-01-28T14:31:37;0.80;99.90
10010;DHT22;5044;48.652;9.250;2023-01-28T14:34:10;1.00;99.90
10010;DHT22;5044;48.652;9.250;2023-01-28T14:36:41;0.90;99.90
10010;DHT22;5044;48.652;9.250;2023-01-28T14:39:15;1.50;99.90
10010;DHT22;5044;48.652;9.250;2023-01-28T14:41:45;1.20;99.90
10010;DHT22;5044;48.652;9.250;2023-01-28T14:44:26;0.80;99.90
10010;DHT22;5044;48.652;9.250;2023-01-28T14:47:05;0.80;99.90
10010;DHT22;5044;48.652;9.250;2023-01-28T14:49:44;1.00;99.90
10010;DHT22;5044;48.652;9.250;2023-01-28T14:52:42;0.70;99.90
10010;DHT22;5044;48.652;9.250;2023-01-28T14:55:26;0.90;99.90
10010;DHT22;5044;48.652;9.250;2023-01-28T14:57:58;0.70;99.90
10010;DHT22;5044;48.652;9.250;2023-01-28T15:00:33;1.10;99.90
10010;DHT22;5044;48.652;9.250;2023-01-28T15:03:08;0.70;99.90
10010;DHT22;5044;48.652;9.250;2023-01-28T15:05:35;1.10;99.90
10010;DHT22;5044;48.652;9.250;2023-01-28T15:08:05;0.90;99.90
10010;DHT22;5044;48.652;9.250;2023-01-28T15:10:35;0.80;99.90
10010;DHT22;5044;48.652;9.250;2023-01-28T15:13:05;0.60;99.90
10010;DHT22;5044;48.652;9.250;2023-01-28T15:15:37;1.40;99.90
10010;DHT22;5044;48.652;9.250;2023-01-28T15:18:22;0.60;99.90
10010;DHT22;5044;48.652;9.250;2023-01-28T15:20:53;0.60;99.90
10010;DHT22;5044;48.652;9.250;2023-01-28T15:23:25;0.60;99.90
10010;DHT22;5044;48.652;9.250;2023-01-28T15:25:52;1.40;99.90
10010;DHT22;5044;48.652;9.250;2023-01-28T15:28:25;1.00;99.90
10010;DHT22;5044;48.652;9.250;2023-01-28T15:30:55;1.20;99.90
10010;DHT22;5044;48.652;9.250;2023-01-28T15:33:22;0.60;99.90
10010;DHT22;5044;48.652;9.250;2023-01-28T15:35:51;0.50;99.90
10010;DHT22;5044;48.652;9.250;2023-01-28T15:38:19;1.00;99.90
10010;DHT22;5044;48.652;9.250;2023-01-28T15:40:50;0.50;99.90
10010;DHT22;5044;48.652;9.250;2023-01-28T15:43:24;0.50;99.90
10010;DHT22;5044;48.652;9.250;2023-01-28T15:45:56;0.50;99.90
10010;DHT22;5044;48.652;9.250;2023-01-28T15:48:25;0.50;99.90
10010;DHT22;5044;48.652;9.250;2023-01-28T15:50:58;1.00;99.90
10010;DHT22;5044;48.652;9.250;2023-01-28T15:53:25;0.40;99.90
10010;DHT22;5044;48.652;9.250;2023-01-28T15:56:04;0.40;99.90
10010;DHT22;5044;48.652;9.250;2023-01-28T15:58:35;0.40;99.90
10010;DHT22;5044;48.652;9.250;2023-01-28T16:01:14;0.40;99.90
10010;DHT22;5044;48.652;9.250;2023-01-28T16:03:43;1.10;99.90
10010;DHT22;5044;48.652;9.250;2023-01-28T16:06:13;0.40;99.90
10010;DHT22;5044;48.652;9.250;2023-01-28T16:08:46;0.50;99.90
10010;DHT22;5044;48.652;9.250;2023-01-28T16:11:23;0.40;99.90
10010;DHT22;5044;48.652;9.250;2023-01-28T16:13:52;0.40;99.90
10010;DHT22;5044;48.652;9.250;2023-01-28T16:16:28;1.30;99.90
10010;DHT22;5044;48.652;9.250;2023-01-28T16:18:56;0.40;99.90
10010;DHT22;5044;48.652;9.250;2023-01-28T16:21:25;0.40;99.90
10010;DHT22;5044;48.652;9.250;2023-01-28T16:23:59;0.40;99.90
10010;DHT22;5044;48.652;9.250;2023-01-28T16:47:18;0.30;99.90
10010;DHT22;5044;48.652;9.250;2023-01-28T16:49:54;0.60;99.90
10010;DHT22;5044;48.652;9.250;2023-01-28T16:54:57;0.20;99.90
10010;DHT22;5044;48.652;9.250;2023-01-28T16:57:24;1.00;99.90
10010;DHT22;5044;48.652;9.250;2023-01-28T16:59:51;0.50;99.90
10010;DHT22;5044;48.652;9.250;2023-01-28T17:20:39;0.20;99.90
10010;DHT22;5044;48.652;9.250;2023-01-28T17:23:06;0.20;99.90
10010;DHT22;5044;48.652;9.250;2023-01-28T17:25:44;-0.50;99.90
10010;DHT22;5044;48.652;9.250;2023-01-28T17:28:11;0.20;99.90
10010;DHT22;5044;48.652;9.250;2023-01-28T17:30:39;0.20;99.90
10010;DHT22;5044;48.652;9.250;2023-01-28T17:33:06;0.30;99.90
10010;DHT22;5044;48.652;9.250;2023-01-28T17:35:34;0.40;99.90
10010;DHT22;5044;48.652;9.250;2023-01-28T17:38:08;1.00;99.90
10010;DHT22;5044;48.652;9.250;2023-01-28T17:44:12;0.00;99.90
10010;DHT22;5044;48.652;9.250;2023-01-28T17:46:41;0.80;99.90
10010;DHT22;5044;48.652;9.250;2023-01-28T17:49:12;0.70;99.90
10010;DHT22;5044;48.652;9.250;2023-01-28T17:51:47;0.10;99.90
10010;DHT22;5044;48.652;9.250;2023-01-28T17:54:21;0.10;99.90
10010;DHT22;5044;48.652;9.250;2023-01-28T17:57:06;-0.10;99.90
10010;DHT22;5044;48.652;9.250;2023-01-28T17:59:35;-0.30;99.90
10010;DHT22;5044;48.652;9.250;2023-01-28T18:02:09;0.10;99.90
10010;DHT22;5044;48.652;9.250;2023-01-28T18:04:50;0.70;99.90
10010;DHT22;5044;48.652;9.250;2023-01-28T18:07:20;0.60;99.90
10010;DHT22;5044;48.652;9.250;2023-01-28T18:09:49;0.10;99.90
10010;DHT22;5044;48.652;9.250;2023-01-28T18:12:17;0.50;99.90
10010;DHT22;5044;48.652;9.250;2023-01-28T18:14:45;0.30;99.90
10010;DHT22;5044;48.652;9.250;2023-01-28T18:17:19;0.50;99.90